sensor_id;sensor_type;location;lat;lon;timestamp;temperature;humidity
37678;DHT22;23517;50.390;8.616;2023-02-05T00:01:27;1.40;71.60
37678;DHT22;23517;50.390;8.616;2023-02-05T00:03:55;1.40;72.10
37678;DHT22;23517;50.390;8.616;2023-02-05T00:06:22;1.40;72.00
37678;DHT22;23517;50.390;8.616;2023-02-05T00:08:48;1.50;71.50
37678;DHT22;23517;50.390;8.616;2023-02-05T00:11:15;1.60;71.10
37678;DHT22;23517;50.390;8.616;2023-02-05T00:13:42;1.60;70.90
37678;DHT22;23517;50.390;8.616;2023-02-05T00:16:12;1.60;71.00
37678;DHT22;23517;50.390;8.616;2023-02-05T00:18:40;1.70;70.20
37678;DHT22;23517;50.390;8.616;2023-02-05T00:21:07;1.70;70.30
37678;DHT22;23517;50.390;8.616;2023-02-05T00:23:35;1.70;70.00
37678;DHT22;23517;50.390;8.616;2023-02-05T00:26:03;1.80;69.90
37678;DHT22;23517;50.390;8.616;2023-02-05T00:28:35;1.80;69.40
37678;DHT22;23517;50.390;8.616;2023-02-05T00:31:08;1.80;70.00
37678;DHT22;23517;50.390;8.616;2023-02-05T00:33:36;1.80;70.00
37678;DHT22;23517;50.390;8.616;2023-02-05T00:36:03;1.80;70.20
37678;DHT22;23517;50.390;8.616;2023-02-05T00:38:30;1.80;69.70
37678;DHT22;23517;50.390;8.616;2023-02-05T00:40:56;1.80;70.10
37678;DHT22;23517;50.390;8.616;2023-02-05T00:43:23;1.80;70.50
37678;DHT22;23517;50.390;8.616;2023-02-05T00:45:50;1.70;71.20
37678;DHT22;23517;50.390;8.616;2023-02-05T00:48:17;1.80;71.50
37678;DHT22;23517;50.390;8.616;2023-02-05T00:50:43;1.80;70.70
37678;DHT22;23517;50.390;8.616;2023-02-05T00:53:10;1.80;70.30
37678;DHT22;23517;50.390;8.616;2023-02-05T00:55:37;1.80;70.90
37678;DHT22;23517;50.390;8.616;2023-02-05T00:58:03;1.80;71.90
37678;DHT22;23517;50.390;8.616;2023-02-05T01:00:30;1.80;71.10
37678;DHT22;23517;50.390;8.616;2023-02-05T01:02:58;1.70;71.20
37678;DHT22;23517;50.390;8.616;2023-02-05T01:05:25;1.70;71.60
37678;DHT22;23517;50.390;8.616;2023-02-05T01:07:52;1.70;72.20
37678;DHT22;23517;50.390;8.616;2023-02-05T01:10:19;1.70;72.20
37678;DHT22;23517;50.390;8.616;2023-02-05T01:12:47;1.70;72.00
37678;DHT22;23517;50.390;8.616;2023-02-05T01:15:16;1.70;72.40
37678;DHT22;23517;50.390;8.616;2023-02-05T01:17:44;1.80;73.40
37678;DHT22;23517;50.390;8.616;2023-02-05T01:20:12;1.70;73.00
37678;DHT22;23517;50.390;8.616;2023-02-05T01:22:39;1.80;73.20
37678;DHT22;23517;50.390;8.616;2023-02-05T01:25:09;1.80;73.40
37678;DHT22;23517;50.390;8.616;2023-02-05T01:27:36;1.90;73.00
37678;DHT22;23517;50.390;8.616;2023-02-05T01:30:04;1.80;73.00
37678;DHT22;23517;50.390;8.616;2023-02-05T01:32:32;1.90;73.80
37678;DHT22;23517;50.390;8.616;2023-02-05T01:34:58;1.90;74.00
37678;DHT22;23517;50.390;8.616;2023-02-05T01:37:25;1.90;73.80
37678;DHT22;23517;50.390;8.616;2023-02-05T01:39:52;2.00;73.20
37678;DHT22;23517;50.390;8.616;2023-02-05T01:42:20;1.90;73.40
37678;DHT22;23517;50.390;8.616;2023-02-05T01:48:02;2.00;74.80
37678;DHT22;23517;50.390;8.616;2023-02-05T01:50:42;2.00;74.90
37678;DHT22;23517;50.390;8.616;2023-02-05T01:53:15;2.10;75.00
37678;DHT22;23517;50.390;8.616;2023-02-05T01:56:08;2.10;74.90
37678;DHT22;23517;50.390;8.616;2023-02-05T01:58:41;2.10;74.50
37678;DHT22;23517;50.390;8.616;2023-02-05T02:01:11;2.10;74.70
37678;DHT22;23517;50.390;8.616;2023-02-05T02:03:38;2.10;74.40
37678;DHT22;23517;50.390;8.616;2023-02-05T02:06:07;2.20;74.70
37678;DHT22;23517;50.390;8.616;2023-02-05T02:08:37;2.20;74.10
37678;DHT22;23517;50.390;8.616;2023-02-05T02:11:05;2.20;73.80
37678;DHT22;23517;50.390;8.616;2023-02-05T02:13:34;2.20;73.80
37678;DHT22;23517;50.390;8.616;2023-02-05T02:16:02;2.20;74.30
37678;DHT22;23517;50.390;8.616;2023-02-05T02:18:30;2.10;75.00
37678;DHT22;23517;50.390;8.616;2023-02-05T02:21:19;2.10;75.80
37678;DHT22;23517;50.390;8.616;2023-02-05T02:27:32;2.10;76.20
37678;DHT22;23517;50.390;8.616;2023-02-05T02:30:09;2.10;76.80
37678;DHT22;23517;50.390;8.616;2023-02-05T02:32:57;2.20;75.60
37678;DHT22;23517;50.390;8.616;2023-02-05T02:35:40;2.30;76.10
37678;DHT22;23517;50.390;8.616;2023-02-05T02:38:56;2.30;76.50
37678;DHT22;23517;50.390;8.616;2023-02-05T02:41:35;2.30;76.40
37678;DHT22;23517;50.390;8.616;2023-02-05T02:44:14;2.30;75.60
37678;DHT22;23517;50.390;8.616;2023-02-05T02:46:51;2.30;76.00
37678;DHT22;23517;50.390;8.616;2023-02-05T02:49:35;2.30;76.30
37678;DHT22;23517;50.390;8.616;2023-02-05T02:52:07;2.30;76.20
37678;DHT22;23517;50.390;8.616;2023-02-05T02:54:35;2.30;76.10
37678;DHT22;23517;50.390;8.616;2023-02-05T02:57:03;2.40;75.60
37678;DHT22;23517;50.390;8.616;2023-02-05T02:59:34;2.40;75.30
37678;DHT22;23517;50.390;8.616;2023-02-05T03:02:03;2.40;75.00
37678;DHT22;23517;50.390;8.616;2023-02-05T03:04:35;2.30;74.40
37678;DHT22;23517;50.390;8.616;2023-02-05T03:07:11;2.30;74.80
37678;DHT22;23517;50.390;8.616;2023-02-05T03:10:13;2.30;75.20
37678;DHT22;23517;50.390;8.616;2023-02-05T03:12:42;2.30;74.80
37678;DHT22;23517;50.390;8.616;2023-02-05T03:15:12;2.20;75.30
37678;DHT22;23517;50.390;8.616;2023-02-05T03:17:39;2.20;76.00
37678;DHT22;23517;50.390;8.616;2023-02-05T03:20:17;2.20;76.70
37678;DHT22;23517;50.390;8.616;2023-02-05T03:22:54;2.20;76.60
37678;DHT22;23517;50.390;8.616;2023-02-05T03:25:22;2.20;77.50
37678;DHT22;23517;50.390;8.616;2023-02-05T03:27:51;2.30;77.50
37678;DHT22;23517;50.390;8.616;2023-02-05T03:30:19;2.20;77.30
37678;DHT22;23517;50.390;8.616;2023-02-05T03:33:04;2.20;77.70
37678;DHT22;23517;50.390;8.616;2023-02-05T03:42:01;2.30;79.60
37678;DHT22;23517;50.390;8.616;2023-02-05T03:50:53;2.30;80.20
37678;DHT22;23517;50.390;8.616;2023-02-05T03:53:47;2.40;80.30
37678;DHT22;23517;50.390;8.616;2023-02-05T03:56:41;2.40;80.00
37678;DHT22;23517;50.390;8.616;2023-02-05T03:59:13;2.40;80.70
37678;DHT22;23517;50.390;8.616;2023-02-05T04:01:42;2.40;80.30
37678;DHT22;23517;50.390;8.616;2023-02-05T04:04:11;2.70;80.30
37678;DHT22;23517;50.390;8.616;2023-02-05T04:06:38;2.30;80.40
37678;DHT22;23517;50.390;8.616;2023-02-05T04:09:06;2.30;80.70
37678;DHT22;23517;50.390;8.616;2023-02-05T04:11:33;2.30;81.30
37678;DHT22;23517;50.390;8.616;2023-02-05T04:13:59;2.30;80.90
37678;DHT22;23517;50.390;8.616;2023-02-05T04:16:26;2.40;81.30
37678;DHT22;23517;50.390;8.616;2023-02-05T04:18:53;2.40;81.80
37678;DHT22;23517;50.390;8.616;2023-02-05T04:21:19;2.40;81.90
37678;DHT22;23517;50.390;8.616;2023-02-05T04:23:46;2.40;82.20
37678;DHT22;23517;50.390;8.616;2023-02-05T04:26:12;2.40;82.60
37678;DHT22;23517;50.390;8.616;2023-02-05T04:28:39;2.40;82.30
37678;DHT22;23517;50.390;8.616;2023-02-05T04:31:07;2.40;82.20
37678;DHT22;23517;50.390;8.616;2023-02-05T04:33:34;2.40;82.70
37678;DHT22;23517;50.390;8.616;2023-02-05T04:36:01;2.40;83.00
37678;DHT22;23517;50.390;8.616;2023-02-05T04:38:28;2.50;83.20
37678;DHT22;23517;50.390;8.616;2023-02-05T04:40:55;2.50;81.90
37678;DHT22;23517;50.390;8.616;2023-02-05T04:43:22;2.50;82.00
37678;DHT22;23517;50.390;8.616;2023-02-05T04:45:48;2.50;81.50
37678;DHT22;23517;50.390;8.616;2023-02-05T04:48:15;2.50;81.60
37678;DHT22;23517;50.390;8.616;2023-02-05T04:50:42;2.50;82.20
37678;DHT22;23517;50.390;8.616;2023-02-05T04:53:09;2.60;82.30
37678;DHT22;23517;50.390;8.616;2023-02-05T04:55:35;2.60;82.30
37678;DHT22;23517;50.390;8.616;2023-02-05T04:58:02;2.60;82.20
37678;DHT22;23517;50.390;8.616;2023-02-05T05:00:29;2.60;81.90
37678;DHT22;23517;50.390;8.616;2023-02-05T05:02:56;2.60;82.10
37678;DHT22;23517;50.390;8.616;2023-02-05T05:05:23;2.70;82.40
37678;DHT22;23517;50.390;8.616;2023-02-05T05:07:50;2.70;81.60
37678;DHT22;23517;50.390;8.616;2023-02-05T05:10:17;2.70;81.90
37678;DHT22;23517;50.390;8.616;2023-02-05T05:12:43;2.60;81.70
37678;DHT22;23517;50.390;8.616;2023-02-05T05:15:10;2.60;81.20
37678;DHT22;23517;50.390;8.616;2023-02-05T05:17:37;2.60;82.10
37678;DHT22;23517;50.390;8.616;2023-02-05T05:20:04;2.50;82.70
37678;DHT22;23517;50.390;8.616;2023-02-05T05:22:31;2.50;83.20
37678;DHT22;23517;50.390;8.616;2023-02-05T05:24:58;2.50;83.70
37678;DHT22;23517;50.390;8.616;2023-02-05T05:27:24;2.60;83.80
37678;DHT22;23517;50.390;8.616;2023-02-05T05:29:51;2.60;82.40
37678;DHT22;23517;50.390;8.616;2023-02-05T05:32:18;2.70;82.70
37678;DHT22;23517;50.390;8.616;2023-02-05T05:34:44;2.80;80.00
37678;DHT22;23517;50.390;8.616;2023-02-05T05:37:13;2.70;79.90
37678;DHT22;23517;50.390;8.616;2023-02-05T05:39:40;2.80;80.00
37678;DHT22;23517;50.390;8.616;2023-02-05T05:42:25;2.70;80.30
37678;DHT22;23517;50.390;8.616;2023-02-05T05:45:11;2.70;80.60
37678;DHT22;23517;50.390;8.616;2023-02-05T05:47:37;2.80;80.40
37678;DHT22;23517;50.390;8.616;2023-02-05T05:50:04;2.70;80.40
37678;DHT22;23517;50.390;8.616;2023-02-05T05:52:31;2.70;80.90
37678;DHT22;23517;50.390;8.616;2023-02-05T05:54:58;2.70;80.60
37678;DHT22;23517;50.390;8.616;2023-02-05T05:57:25;2.80;81.00
37678;DHT22;23517;50.390;8.616;2023-02-05T05:59:53;2.80;81.00
37678;DHT22;23517;50.390;8.616;2023-02-05T06:02:19;2.80;79.60
37678;DHT22;23517;50.390;8.616;2023-02-05T06:04:46;2.70;80.70
37678;DHT22;23517;50.390;8.616;2023-02-05T06:07:13;2.80;79.80
37678;DHT22;23517;50.390;8.616;2023-02-05T06:09:39;2.80;80.00
37678;DHT22;23517;50.390;8.616;2023-02-05T06:12:06;2.90;80.20
37678;DHT22;23517;50.390;8.616;2023-02-05T06:14:34;3.00;80.70
37678;DHT22;23517;50.390;8.616;2023-02-05T06:17:01;3.10;79.80
37678;DHT22;23517;50.390;8.616;2023-02-05T06:19:27;3.10;78.60
37678;DHT22;23517;50.390;8.616;2023-02-05T06:21:54;3.10;78.10
37678;DHT22;23517;50.390;8.616;2023-02-05T06:24:20;3.00;79.20
37678;DHT22;23517;50.390;8.616;2023-02-05T06:26:47;3.00;79.40
37678;DHT22;23517;50.390;8.616;2023-02-05T06:29:14;3.00;78.70
37678;DHT22;23517;50.390;8.616;2023-02-05T06:31:40;3.00;79.30
37678;DHT22;23517;50.390;8.616;2023-02-05T06:34:08;3.00;79.60
37678;DHT22;23517;50.390;8.616;2023-02-05T06:36:34;3.00;79.20
37678;DHT22;23517;50.390;8.616;2023-02-05T06:39:01;2.90;78.90
37678;DHT22;23517;50.390;8.616;2023-02-05T06:41:27;2.80;80.00
37678;DHT22;23517;50.390;8.616;2023-02-05T06:43:57;2.70;81.10
37678;DHT22;23517;50.390;8.616;2023-02-05T06:46:24;2.70;82.40
37678;DHT22;23517;50.390;8.616;2023-02-05T06:48:50;2.70;83.70
37678;DHT22;23517;50.390;8.616;2023-02-05T06:51:17;2.80;83.50
37678;DHT22;23517;50.390;8.616;2023-02-05T06:53:44;2.70;84.10
37678;DHT22;23517;50.390;8.616;2023-02-05T06:56:10;2.80;84.70
37678;DHT22;23517;50.390;8.616;2023-02-05T06:58:37;3.00;82.70
37678;DHT22;23517;50.390;8.616;2023-02-05T07:01:03;3.00;83.00
37678;DHT22;23517;50.390;8.616;2023-02-05T07:03:30;2.90;84.00
37678;DHT22;23517;50.390;8.616;2023-02-05T07:06:02;2.90;83.80
37678;DHT22;23517;50.390;8.616;2023-02-05T07:08:31;2.90;84.50
37678;DHT22;23517;50.390;8.616;2023-02-05T07:10:59;2.80;84.70
37678;DHT22;23517;50.390;8.616;2023-02-05T07:13:25;2.80;84.90
37678;DHT22;23517;50.390;8.616;2023-02-05T07:15:54;2.70;85.00
37678;DHT22;23517;50.390;8.616;2023-02-05T07:18:21;2.70;85.40
37678;DHT22;23517;50.390;8.616;2023-02-05T07:20:47;2.70;85.80
37678;DHT22;23517;50.390;8.616;2023-02-05T07:23:14;2.60;85.90
37678;DHT22;23517;50.390;8.616;2023-02-05T07:25:41;2.60;86.30
37678;DHT22;23517;50.390;8.616;2023-02-05T07:28:10;2.50;86.90
37678;DHT22;23517;50.390;8.616;2023-02-05T07:30:37;2.50;88.10
37678;DHT22;23517;50.390;8.616;2023-02-05T07:33:04;2.50;88.70
37678;DHT22;23517;50.390;8.616;2023-02-05T07:35:31;2.50;89.50
37678;DHT22;23517;50.390;8.616;2023-02-05T07:37:59;2.50;90.00
37678;DHT22;23517;50.390;8.616;2023-02-05T07:40:26;2.50;90.90
37678;DHT22;23517;50.390;8.616;2023-02-05T07:42:52;2.50;91.40
37678;DHT22;23517;50.390;8.616;2023-02-05T07:45:19;2.60;92.40
37678;DHT22;23517;50.390;8.616;2023-02-05T07:47:46;2.70;91.90
37678;DHT22;23517;50.390;8.616;2023-02-05T07:50:15;2.70;92.00
37678;DHT22;23517;50.390;8.616;2023-02-05T07:52:42;2.80;91.70
37678;DHT22;23517;50.390;8.616;2023-02-05T07:55:09;2.80;91.00
37678;DHT22;23517;50.390;8.616;2023-02-05T07:57:36;2.70;91.30
37678;DHT22;23517;50.390;8.616;2023-02-05T08:00:03;2.70;91.50
37678;DHT22;23517;50.390;8.616;2023-02-05T08:02:30;2.80;91.20
37678;DHT22;23517;50.390;8.616;2023-02-05T08:04:56;2.80;91.10
37678;DHT22;23517;50.390;8.616;2023-02-05T08:07:29;2.80;91.20
37678;DHT22;23517;50.390;8.616;2023-02-05T08:09:56;2.80;91.30
37678;DHT22;23517;50.390;8.616;2023-02-05T08:12:23;2.90;91.50
37678;DHT22;23517;50.390;8.616;2023-02-05T08:14:53;2.90;91.40
37678;DHT22;23517;50.390;8.616;2023-02-05T08:17:20;3.00;90.80
37678;DHT22;23517;50.390;8.616;2023-02-05T08:19:49;3.00;90.90
37678;DHT22;23517;50.390;8.616;2023-02-05T08:22:16;3.00;90.50
37678;DHT22;23517;50.390;8.616;2023-02-05T08:24:42;2.90;90.60
37678;DHT22;23517;50.390;8.616;2023-02-05T08:27:09;3.00;90.60
37678;DHT22;23517;50.390;8.616;2023-02-05T08:29:35;3.00;90.70
37678;DHT22;23517;50.390;8.616;2023-02-05T08:32:02;3.00;91.40
37678;DHT22;23517;50.390;8.616;2023-02-05T08:34:29;3.00;91.70
37678;DHT22;23517;50.390;8.616;2023-02-05T08:36:56;3.00;91.90
37678;DHT22;23517;50.390;8.616;2023-02-05T08:39:23;3.00;92.00
37678;DHT22;23517;50.390;8.616;2023-02-05T08:41:51;3.00;92.20
37678;DHT22;23517;50.390;8.616;2023-02-05T08:44:18;3.20;91.80
37678;DHT22;23517;50.390;8.616;2023-02-05T08:46:44;3.40;90.00
37678;DHT22;23517;50.390;8.616;2023-02-05T08:49:16;3.50;89.10
37678;DHT22;23517;50.390;8.616;2023-02-05T08:51:43;3.60;88.00
37678;DHT22;23517;50.390;8.616;2023-02-05T08:54:10;3.50;86.90
37678;DHT22;23517;50.390;8.616;2023-02-05T08:56:39;3.40;87.60
37678;DHT22;23517;50.390;8.616;2023-02-05T08:59:07;3.40;87.20
37678;DHT22;23517;50.390;8.616;2023-02-05T09:01:36;3.40;87.50
37678;DHT22;23517;50.390;8.616;2023-02-05T09:04:06;3.30;88.80
37678;DHT22;23517;50.390;8.616;2023-02-05T09:06:33;3.40;89.50
37678;DHT22;23517;50.390;8.616;2023-02-05T09:09:03;3.50;89.20
37678;DHT22;23517;50.390;8.616;2023-02-05T09:11:31;3.60;89.00
37678;DHT22;23517;50.390;8.616;2023-02-05T09:13:58;3.70;89.20
37678;DHT22;23517;50.390;8.616;2023-02-05T09:16:25;3.70;89.30
37678;DHT22;23517;50.390;8.616;2023-02-05T09:18:56;3.70;88.80
37678;DHT22;23517;50.390;8.616;2023-02-05T09:21:24;3.70;88.80
37678;DHT22;23517;50.390;8.616;2023-02-05T09:23:52;3.70;88.30
37678;DHT22;23517;50.390;8.616;2023-02-05T09:26:20;3.60;88.70
37678;DHT22;23517;50.390;8.616;2023-02-05T09:28:47;3.70;89.00
37678;DHT22;23517;50.390;8.616;2023-02-05T09:31:16;3.70;88.70
37678;DHT22;23517;50.390;8.616;2023-02-05T09:33:44;3.70;88.60
37678;DHT22;23517;50.390;8.616;2023-02-05T09:38:44;3.80;88.10
37678;DHT22;23517;50.390;8.616;2023-02-05T09:41:54;3.90;88.30
37678;DHT22;23517;50.390;8.616;2023-02-05T09:47:05;3.90;87.80
37678;DHT22;23517;50.390;8.616;2023-02-05T09:49:52;3.90;87.30
37678;DHT22;23517;50.390;8.616;2023-02-05T09:52:25;3.90;86.30
37678;DHT22;23517;50.390;8.616;2023-02-05T09:55:01;3.90;87.70
37678;DHT22;23517;50.390;8.616;2023-02-05T09:57:38;3.90;87.00
37678;DHT22;23517;50.390;8.616;2023-02-05T10:00:20;3.80;86.60
37678;DHT22;23517;50.390;8.616;2023-02-05T10:03:21;3.80;86.80
37678;DHT22;23517;50.390;8.616;2023-02-05T10:09:00;3.80;85.60
37678;DHT22;23517;50.390;8.616;2023-02-05T10:12:16;3.80;86.10
37678;DHT22;23517;50.390;8.616;2023-02-05T10:15:16;3.80;86.00
37678;DHT22;23517;50.390;8.616;2023-02-05T10:21:18;3.70;86.90
37678;DHT22;23517;50.390;8.616;2023-02-05T10:27:08;3.80;87.10
37678;DHT22;23517;50.390;8.616;2023-02-05T10:30:27;3.90;87.20
37678;DHT22;23517;50.390;8.616;2023-02-05T10:33:04;3.90;86.90
37678;DHT22;23517;50.390;8.616;2023-02-05T10:35:49;4.00;85.80
37678;DHT22;23517;50.390;8.616;2023-02-05T10:38:36;3.90;86.30
37678;DHT22;23517;50.390;8.616;2023-02-05T10:41:25;3.80;86.40
37678;DHT22;23517;50.390;8.616;2023-02-05T10:46:56;3.90;87.10
37678;DHT22;23517;50.390;8.616;2023-02-05T10:49:47;3.70;86.20
37678;DHT22;23517;50.390;8.616;2023-02-05T10:52:17;3.70;88.00
37678;DHT22;23517;50.390;8.616;2023-02-05T10:54:45;3.70;87.00
37678;DHT22;23517;50.390;8.616;2023-02-05T10:57:15;3.70;88.30
37678;DHT22;23517;50.390;8.616;2023-02-05T10:59:56;3.80;86.10
37678;DHT22;23517;50.390;8.616;2023-02-05T11:02:38;3.60;87.30
37678;DHT22;23517;50.390;8.616;2023-02-05T11:05:16;3.60;87.90
37678;DHT22;23517;50.390;8.616;2023-02-05T11:07:49;3.60;88.60
37678;DHT22;23517;50.390;8.616;2023-02-05T11:12:48;3.60;89.00
37678;DHT22;23517;50.390;8.616;2023-02-05T11:15:26;3.60;90.20
37678;DHT22;23517;50.390;8.616;2023-02-05T11:17:59;3.70;89.80
37678;DHT22;23517;50.390;8.616;2023-02-05T11:20:32;3.80;89.80
37678;DHT22;23517;50.390;8.616;2023-02-05T11:23:17;3.80;89.60
37678;DHT22;23517;50.390;8.616;2023-02-05T11:25:56;3.70;88.80
37678;DHT22;23517;50.390;8.616;2023-02-05T11:28:31;3.70;90.00
37678;DHT22;23517;50.390;8.616;2023-02-05T11:36:33;3.90;88.80
37678;DHT22;23517;50.390;8.616;2023-02-05T11:39:03;3.90;89.00
37678;DHT22;23517;50.390;8.616;2023-02-05T11:41:36;3.90;88.10
37678;DHT22;23517;50.390;8.616;2023-02-05T11:44:20;3.80;89.50
37678;DHT22;23517;50.390;8.616;2023-02-05T11:46:54;3.90;89.20
37678;DHT22;23517;50.390;8.616;2023-02-05T11:49:29;4.00;89.20
37678;DHT22;23517;50.390;8.616;2023-02-05T11:51:58;4.00;89.00
37678;DHT22;23517;50.390;8.616;2023-02-05T11:54:32;4.20;88.40
37678;DHT22;23517;50.390;8.616;2023-02-05T11:57:01;4.10;86.80
37678;DHT22;23517;50.390;8.616;2023-02-05T11:59:33;4.20;87.00
37678;DHT22;23517;50.390;8.616;2023-02-05T12:10:44;4.30;87.30
37678;DHT22;23517;50.390;8.616;2023-02-05T12:13:25;4.20;86.70
37678;DHT22;23517;50.390;8.616;2023-02-05T12:16:05;4.20;87.50
37678;DHT22;23517;50.390;8.616;2023-02-05T12:21:50;4.40;88.00
37678;DHT22;23517;50.390;8.616;2023-02-05T12:24:50;4.40;85.30
37678;DHT22;23517;50.390;8.616;2023-02-05T12:30:45;4.40;84.30
37678;DHT22;23517;50.390;8.616;2023-02-05T12:45:18;4.30;88.20
37678;DHT22;23517;50.390;8.616;2023-02-05T12:54:17;4.30;87.40
37678;DHT22;23517;50.390;8.616;2023-02-05T12:57:12;4.40;86.60
37678;DHT22;23517;50.390;8.616;2023-02-05T12:59:51;4.50;87.20
37678;DHT22;23517;50.390;8.616;2023-02-05T13:05:30;4.50;85.80
37678;DHT22;23517;50.390;8.616;2023-02-05T13:08:05;4.50;86.10
37678;DHT22;23517;50.390;8.616;2023-02-05T13:10:50;4.50;86.70
37678;DHT22;23517;50.390;8.616;2023-02-05T13:13:27;4.40;86.20
37678;DHT22;23517;50.390;8.616;2023-02-05T13:16:10;4.40;87.50
37678;DHT22;23517;50.390;8.616;2023-02-05T13:18:44;4.50;86.90
37678;DHT22;23517;50.390;8.616;2023-02-05T13:21:17;4.50;86.50
37678;DHT22;23517;50.390;8.616;2023-02-05T13:27:20;4.60;87.80
37678;DHT22;23517;50.390;8.616;2023-02-05T13:30:13;4.70;86.70
37678;DHT22;23517;50.390;8.616;2023-02-05T13:32:43;4.80;86.40
37678;DHT22;23517;50.390;8.616;2023-02-05T13:35:13;4.80;83.40
37678;DHT22;23517;50.390;8.616;2023-02-05T13:37:49;4.90;82.90
37678;DHT22;23517;50.390;8.616;2023-02-05T13:40:27;4.80;83.20
37678;DHT22;23517;50.390;8.616;2023-02-05T13:43:05;4.80;84.60
37678;DHT22;23517;50.390;8.616;2023-02-05T13:52:05;5.10;84.10
37678;DHT22;23517;50.390;8.616;2023-02-05T13:55:16;5.10;81.10
37678;DHT22;23517;50.390;8.616;2023-02-05T14:03:38;5.00;82.80
37678;DHT22;23517;50.390;8.616;2023-02-05T14:16:51;4.90;85.50
37678;DHT22;23517;50.390;8.616;2023-02-05T14:22:33;4.80;87.00
37678;DHT22;23517;50.390;8.616;2023-02-05T14:25:00;4.70;87.90
37678;DHT22;23517;50.390;8.616;2023-02-05T14:38:50;4.80;88.50
37678;DHT22;23517;50.390;8.616;2023-02-05T14:41:24;4.70;87.60
37678;DHT22;23517;50.390;8.616;2023-02-05T14:46:41;4.70;89.70
37678;DHT22;23517;50.390;8.616;2023-02-05T14:49:33;4.50;89.60
37678;DHT22;23517;50.390;8.616;2023-02-05T14:52:06;4.50;90.00
37678;DHT22;23517;50.390;8.616;2023-02-05T14:54:48;4.50;91.10
37678;DHT22;23517;50.390;8.616;2023-02-05T14:57:23;4.60;91.70
37678;DHT22;23517;50.390;8.616;2023-02-05T15:00:52;4.60;90.40
37678;DHT22;23517;50.390;8.616;2023-02-05T15:11:10;4.50;92.90
37678;DHT22;23517;50.390;8.616;2023-02-05T15:13:40;4.50;92.30
37678;DHT22;23517;50.390;8.616;2023-02-05T15:18:57;4.40;92.10
37678;DHT22;23517;50.390;8.616;2023-02-05T15:21:30;4.30;92.90
37678;DHT22;23517;50.390;8.616;2023-02-05T15:24:14;4.30;93.50
37678;DHT22;23517;50.390;8.616;2023-02-05T15:26:57;4.30;93.20
37678;DHT22;23517;50.390;8.616;2023-02-05T15:29:39;4.30;94.60
37678;DHT22;23517;50.390;8.616;2023-02-05T15:33:20;4.30;93.80
37678;DHT22;23517;50.390;8.616;2023-02-05T15:35:32;4.20;94.90
37678;DHT22;23517;50.390;8.616;2023-02-05T15:40:55;4.30;93.60
37678;DHT22;23517;50.390;8.616;2023-02-05T15:43:25;4.20;94.10
37678;DHT22;23517;50.390;8.616;2023-02-05T15:45:59;4.30;94.60
37678;DHT22;23517;50.390;8.616;2023-02-05T15:48:30;4.30;94.60
37678;DHT22;23517;50.390;8.616;2023-02-05T15:53:47;4.20;95.30
37678;DHT22;23517;50.390;8.616;2023-02-05T15:56:27;4.20;95.20
37678;DHT22;23517;50.390;8.616;2023-02-05T15:59:03;4.20;94.80
37678;DHT22;23517;50.390;8.616;2023-02-05T16:01:34;4.10;95.20
37678;DHT22;23517;50.390;8.616;2023-02-05T16:04:33;4.10;95.70
37678;DHT22;23517;50.390;8.616;2023-02-05T16:07:16;4.10;95.80
37678;DHT22;23517;50.390;8.616;2023-02-05T16:09:47;4.10;95.90
37678;DHT22;23517;50.390;8.616;2023-02-05T16:12:18;4.10;96.10
37678;DHT22;23517;50.390;8.616;2023-02-05T16:14:45;4.00;96.40
37678;DHT22;23517;50.390;8.616;2023-02-05T16:17:19;4.00;96.40
37678;DHT22;23517;50.390;8.616;2023-02-05T16:22:36;4.00;97.30
37678;DHT22;23517;50.390;8.616;2023-02-05T16:25:26;4.00;97.40
37678;DHT22;23517;50.390;8.616;2023-02-05T16:28:00;4.10;98.00
37678;DHT22;23517;50.390;8.616;2023-02-05T16:30:39;4.10;97.50
37678;DHT22;23517;50.390;8.616;2023-02-05T16:36:26;4.20;97.30
37678;DHT22;23517;50.390;8.616;2023-02-05T16:39:00;4.10;97.00
37678;DHT22;23517;50.390;8.616;2023-02-05T16:41:34;4.10;96.30
37678;DHT22;23517;50.390;8.616;2023-02-05T16:44:04;4.20;95.20
37678;DHT22;23517;50.390;8.616;2023-02-05T16:46:33;4.10;95.00
37678;DHT22;23517;50.390;8.616;2023-02-05T16:49:08;4.10;95.00
37678;DHT22;23517;50.390;8.616;2023-02-05T16:59:21;4.10;94.10
37678;DHT22;23517;50.390;8.616;2023-02-05T17:01:50;4.10;94.00
37678;DHT22;23517;50.390;8.616;2023-02-05T17:07:05;4.20;93.40
37678;DHT22;23517;50.390;8.616;2023-02-05T17:09:42;4.20;93.80
37678;DHT22;23517;50.390;8.616;2023-02-05T17:15:01;4.20;92.80
37678;DHT22;23517;50.390;8.616;2023-02-05T17:17:58;4.20;91.90
37678;DHT22;23517;50.390;8.616;2023-02-05T17:20:30;4.20;91.90
37678;DHT22;23517;50.390;8.616;2023-02-05T17:25:34;4.30;92.10
37678;DHT22;23517;50.390;8.616;2023-02-05T17:28:04;4.30;91.90
37678;DHT22;23517;50.390;8.616;2023-02-05T17:30:35;4.30;91.60
37678;DHT22;23517;50.390;8.616;2023-02-05T17:33:07;4.30;91.60
37678;DHT22;23517;50.390;8.616;2023-02-05T17:35:35;4.30;91.60
37678;DHT22;23517;50.390;8.616;2023-02-05T17:38:02;4.30;92.00
37678;DHT22;23517;50.390;8.616;2023-02-05T17:40:29;4.30;92.30
37678;DHT22;23517;50.390;8.616;2023-02-05T17:42:55;4.30;92.20
37678;DHT22;23517;50.390;8.616;2023-02-05T17:45:30;4.30;91.90
37678;DHT22;23517;50.390;8.616;2023-02-05T17:47:58;4.30;93.20
37678;DHT22;23517;50.390;8.616;2023-02-05T17:50:27;4.30;92.20
37678;DHT22;23517;50.390;8.616;2023-02-05T17:52:56;4.20;92.10
37678;DHT22;23517;50.390;8.616;2023-02-05T17:55:26;4.30;92.80
37678;DHT22;23517;50.390;8.616;2023-02-05T17:57:52;4.30;92.10
37678;DHT22;23517;50.390;8.616;2023-02-05T18:00:24;4.30;91.80
37678;DHT22;23517;50.390;8.616;2023-02-05T18:02:52;4.30;91.90
37678;DHT22;23517;50.390;8.616;2023-02-05T18:05:20;4.20;92.00
37678;DHT22;23517;50.390;8.616;2023-02-05T18:07:50;4.20;92.20
37678;DHT22;23517;50.390;8.616;2023-02-05T18:10:24;4.30;92.40
37678;DHT22;23517;50.390;8.616;2023-02-05T18:12:53;4.30;92.00
37678;DHT22;23517;50.390;8.616;2023-02-05T18:15:22;4.30;92.30
37678;DHT22;23517;50.390;8.616;2023-02-05T18:17:50;4.30;92.10
37678;DHT22;23517;50.390;8.616;2023-02-05T18:20:17;4.30;91.80
37678;DHT22;23517;50.390;8.616;2023-02-05T18:22:47;4.30;91.40
37678;DHT22;23517;50.390;8.616;2023-02-05T18:25:14;4.30;91.60
37678;DHT22;23517;50.390;8.616;2023-02-05T18:27:41;4.40;91.90
37678;DHT22;23517;50.390;8.616;2023-02-05T18:30:13;4.30;91.90
37678;DHT22;23517;50.390;8.616;2023-02-05T18:32:40;4.30;92.20
37678;DHT22;23517;50.390;8.616;2023-02-05T18:35:07;4.30;93.00
37678;DHT22;23517;50.390;8.616;2023-02-05T18:37:43;4.30;92.90
37678;DHT22;23517;50.390;8.616;2023-02-05T18:40:11;4.30;93.10
37678;DHT22;23517;50.390;8.616;2023-02-05T18:42:38;4.40;93.10
37678;DHT22;23517;50.390;8.616;2023-02-05T18:45:07;4.40;92.60
37678;DHT22;23517;50.390;8.616;2023-02-05T18:47:34;4.40;92.80
37678;DHT22;23517;50.390;8.616;2023-02-05T18:50:01;4.40;92.10
37678;DHT22;23517;50.390;8.616;2023-02-05T18:52:28;4.40;92.30
37678;DHT22;23517;50.390;8.616;2023-02-05T18:54:56;4.40;91.90
37678;DHT22;23517;50.390;8.616;2023-02-05T18:57:23;4.40;92.30
37678;DHT22;23517;50.390;8.616;2023-02-05T18:59:49;4.30;92.50